CDT,Max TemperatureF,Mean TemperatureF,Min TemperatureF,Max Dew PointF,MeanDew PointF,Min DewpointF,Max Humidity, Mean Humidity, Min Humidity, Max Sea Level PressureIn, Mean Sea Level PressureIn, Min Sea Level PressureIn, Max VisibilityMiles, Mean VisibilityMiles, Min VisibilityMiles, Max Wind SpeedMPH, Mean Wind SpeedMPH, Max Gust SpeedMPH,PrecipitationIn, CloudCover, Events, WindDirDegrees
2012-10-1,68,54,39,49,42,38,97,68,35,29.95,29.88,29.83,10,10,10,6,2,,0.00,0,,42
2012-10-2,74,58,41,50,43,38,96,64,27,29.93,29.87,29.83,10,10,7,13,4,18,0.00,0,,37
2012-10-3,67,58,48,55,52,46,97,80,58,30.03,29.96,29.91,10,8,4,6,3,,0.00,7,,240
2012-10-4,72,56,41,55,48,36,98,81,50,30.15,30.05,30.00,10,9,5,20,7,25,0.01,1,Rain-Thunderstorm,220
2012-10-5,49,40,32,36,29,20,89,61,34,30.19,30.14,30.09,10,10,10,18,9,26,0.00,1,,282
2012-10-6,48,37,27,30,27,24,90,64,45,30.20,30.16,30.09,10,10,10,16,9,23,0.00,4,,293
2012-10-7,50,37,25,29,24,17,87,57,29,30.21,30.16,30.12,10,10,10,14,6,18,0.00,4,,279
2012-10-8,61,42,23,33,27,21,90,58,28,30.13,30.06,29.97,10,10,10,23,8,31,0.00,0,,191
2012-10-9,66,54,41,43,38,33,95,62,34,29.97,29.89,29.80,10,10,4,24,13,31,0.25,3,Rain,229
2012-10-10,51,40,28,40,31,27,97,75,40,30.18,30.09,29.94,10,10,10,21,9,29,0.26,1,,269
2012-10-11,67,48,28,41,34,27,92,63,28,30.28,30.13,30.04,10,10,10,22,10,29,0.02,2,Rain,226
2012-10-12,55,43,31,42,30,27,91,60,35,30.46,30.37,30.28,10,10,10,16,8,23,0.00,2,,69
2012-10-13,64,54,43,62,51,35,97,90,67,30.22,29.94,29.78,10,6,2,17,12,23,0.14,8,Rain-Thunderstorm,177
2012-10-14,66,56,45,62,55,43,98,92,79,29.82,29.62,29.42,10,8,1,26,12,37,0.77,7,Rain-Thunderstorm,235
2012-10-15,59,47,35,43,39,34,97,76,46,29.96,29.92,29.82,10,10,10,15,9,21,0.00,1,,299
2012-10-16,71,53,36,54,45,35,97,74,47,29.94,29.72,29.52,10,10,10,30,11,37,0.00,0,,158
2012-10-17,68,60,51,57,52,48,98,80,58,29.54,29.44,29.31,10,9,2,26,12,37,0.58,4,Rain-Thunderstorm,191
2012-10-18,50,46,42,48,41,35,93,85,58,29.47,29.40,29.34,10,10,7,21,12,28,0.07,7,Rain,220
2012-10-19,51,44,37,46,42,37,99,92,78,29.68,29.52,29.41,10,8,2,13,6,,0.04,7,Rain,282
2012-10-20,55,43,31,45,38,31,100,88,59,29.94,29.82,29.68,10,8,0,12,6,16,0.00,1,Fog,240
2012-10-21,69,50,32,51,43,32,100,82,48,30.01,29.96,29.93,10,8,2,17,7,22,0.00,0,,141
2012-10-22,64,56,48,61,57,46,99,94,89,29.96,29.92,29.87,10,7,2,16,5,18,0.13,6,Rain-Thunderstorm,146
2012-10-23,70,65,60,65,62,60,98,90,78,29.92,29.89,29.85,10,7,2,16,7,,0.01,6,Rain,158
2012-10-24,79,69,59,65,62,58,96,81,61,29.93,29.88,29.81,10,10,7,22,10,26,0.00,4,,171
2012-10-25,72,56,40,63,54,34,94,84,68,30.10,29.81,29.66,10,10,5,26,18,33,0.23,5,Rain-Thunderstorm,213
2012-10-26,47,40,34,34,30,26,86,67,45,30.34,30.28,30.12,10,10,10,22,12,23,0.04,3,,325
2012-10-27,45,36,27,30,27,24,92,72,47,30.35,30.31,30.26,10,10,10,15,8,21,0.00,0,,1
2012-10-28,49,39,30,33,28,25,89,71,47,30.31,30.29,30.26,10,10,10,16,8,24,0.00,3,,21
2012-10-29,51,39,28,32,26,19,92,65,30,30.33,30.26,30.11,10,10,10,18,9,23,0.00,0,,356
2012-10-30,48,41,34,28,25,22,75,58,36,30.11,29.92,29.84,10,10,10,29,16,34,0.00,0,,338
2012-10-31,49,39,29,31,24,14,83,62,29,29.89,29.87,29.84,10,10,10,20,11,26,0.00,0,,316